Time;durP1;ratioP1;P1;durP2;ratioP2;P2;SDS_P1;SDS_P2;PMS_P1;PMS_P2;Temp;Humidity;BMP_temperature;BMP_pressure;BME280_temperature;BME280_humidity;BME280_pressure;Samples;Min_cycle;Max_cycle;Signal;HPM_P1;HPM_P2
2022/03/21 00:02:12;;;;;;;16.97;10.37;;;;;;;3.37;90.01;96597.41;5076751;28;21221;-57
2022/03/21 00:04:37;;;;;;;14.70;10.10;;;;;;;3.35;90.66;96596.94;5076969;28;20185;-58
2022/03/21 00:07:03;;;;;;;17.17;10.57;;;;;;;3.33;91.54;96591.09;5075883;28;20181;-59
2022/03/21 00:09:28;;;;;;;18.57;11.03;;;;;;;3.33;91.66;96596.50;5076231;28;20188;-59
2022/03/21 00:11:53;;;;;;;15.37;10.13;;;;;;;3.31;92.78;96597.91;5075938;28;20180;-59
2022/03/21 00:14:19;;;;;;;18.20;10.63;;;;;;;3.25;93.71;96600.00;5076282;28;20184;-59
2022/03/21 00:16:46;;;;;;;16.63;10.80;;;;;;;3.21;94.05;96612.56;5075728;28;20204;-60
2022/03/21 00:19:11;;;;;;;15.10;10.23;;;;;;;3.16;94.50;96604.69;5076158;28;20218;-59
2022/03/21 00:21:37;;;;;;;16.20;10.40;;;;;;;3.12;94.81;96601.06;5075964;28;20235;-59
2022/03/21 00:24:03;;;;;;;15.57;9.90;;;;;;;3.06;95.19;96599.66;5076058;28;20275;-59
2022/03/21 00:26:28;;;;;;;15.13;10.17;;;;;;;3.01;95.86;96594.44;5075993;28;20187;-61
2022/03/21 00:28:54;;;;;;;14.97;9.63;;;;;;;2.95;97.29;96598.44;5076496;28;20192;-59
2022/03/21 00:31:19;;;;;;;17.47;10.83;;;;;;;2.91;98.66;96594.00;5076367;28;20176;-59
2022/03/21 00:33:44;;;;;;;15.47;10.33;;;;;;;2.85;100.00;96596.09;5076887;28;20192;-59
2022/03/21 00:36:10;;;;;;;17.97;10.10;;;;;;;2.79;100.00;96594.72;5097373;28;20204;-59
2022/03/21 00:38:41;;;;;;;16.60;11.07;;;;;;;2.76;100.00;96608.03;5079997;28;20188;-59
2022/03/21 00:41:07;;;;;;;17.23;10.17;;;;;;;2.68;100.00;96601.56;5079279;28;20184;-59
2022/03/21 00:43:33;;;;;;;13.43;10.30;;;;;;;2.60;100.00;96605.09;5079800;28;20187;-57
2022/03/21 00:45:59;;;;;;;15.13;10.50;;;;;;;2.60;100.00;96610.47;5079780;28;20207;-56
2022/03/21 00:48:25;;;;;;;16.20;10.27;;;;;;;2.53;100.00;96610.19;5079243;28;20180;-56
2022/03/21 00:50:52;;;;;;;16.50;10.20;;;;;;;2.47;100.00;96611.47;5079291;28;20187;-56
2022/03/21 00:53:18;;;;;;;15.00;10.03;;;;;;;2.41;100.00;96618.13;5079537;28;20188;-57
2022/03/21 00:55:44;;;;;;;19.83;10.97;;;;;;;2.34;100.00;96617.81;5079037;28;20208;-57
2022/03/21 00:58:09;;;;;;;14.70;10.73;;;;;;;2.25;100.00;96614.38;5079149;28;20180;-56
2022/03/21 01:00:35;;;;;;;15.83;10.30;;;;;;;2.21;100.00;96610.72;5096651;28;20184;-57
2022/03/21 01:03:02;;;;;;;16.37;10.20;;;;;;;2.17;100.00;96609.78;5079118;28;20208;-56
2022/03/21 01:05:28;;;;;;;13.93;10.40;;;;;;;2.13;100.00;96614.22;5078863;28;20191;-65
2022/03/21 01:07:55;;;;;;;18.17;10.27;;;;;;;2.13;100.00;96603.47;5079629;28;20191;-65
2022/03/21 01:10:22;;;;;;;15.87;10.87;;;;;;;2.10;100.00;96606.78;5079002;28;20177;-65
2022/03/21 01:12:48;;;;;;;17.03;11.73;;;;;;;2.09;100.00;96605.22;5078798;28;20184;-63
2022/03/21 01:15:18;;;;;;;16.03;11.57;;;;;;;2.08;100.00;96595.53;5078875;28;20218;-65
2022/03/21 01:17:45;;;;;;;16.20;10.50;;;;;;;2.02;100.00;96604.09;5078882;28;20216;-65
2022/03/21 01:20:12;;;;;;;16.87;10.67;;;;;;;1.96;100.00;96599.97;5078691;28;20329;-70
2022/03/21 01:22:38;;;;;;;17.57;11.17;;;;;;;1.89;100.00;96605.84;5078921;28;20180;-60
2022/03/21 01:25:05;;;;;;;17.27;11.87;;;;;;;1.85;100.00;96598.72;5078555;28;20206;-58
2022/03/21 01:27:31;;;;;;;15.53;10.47;;;;;;;1.81;100.00;96595.88;5078917;28;20185;-56
2022/03/21 01:29:57;;;;;;;17.80;11.13;;;;;;;1.78;100.00;96593.81;5078559;28;20257;-56
2022/03/21 01:32:22;;;;;;;18.67;11.43;;;;;;;1.75;100.00;96593.69;5079055;28;20199;-56
2022/03/21 01:34:47;;;;;;;16.77;11.53;;;;;;;1.70;100.00;96601.88;5078991;28;20188;-57
2022/03/21 01:37:13;;;;;;;18.67;11.57;;;;;;;1.63;100.00;96596.19;5078210;28;20184;-56
2022/03/21 01:39:38;;;;;;;18.90;11.27;;;;;;;1.55;100.00;96597.78;5078427;28;20183;-63
2022/03/21 01:42:04;;;;;;;15.53;10.93;;;;;;;1.53;100.00;96602.69;5078626;28;20184;-60
2022/03/21 01:44:29;;;;;;;19.83;11.93;;;;;;;1.50;100.00;96597.94;5078264;28;20205;-60
2022/03/21 01:47:53;;;;;;;24.73;12.00;;;;;;;1.44;100.00;96601.88;5077986;28;20271;-60
2022/03/21 01:50:19;;;;;;;20.63;11.70;;;;;;;1.42;100.00;96596.00;5078984;28;20187;-59
2022/03/21 01:52:46;;;;;;;16.43;11.57;;;;;;;1.33;100.00;96592.53;5078323;28;20183;-61
2022/03/21 01:58:00;;;;;;;18.37;11.63;;;;;;;1.10;100.00;96601.84;5096618;28;20316;-63
2022/03/21 02:00:26;;;;;;;20.50;12.47;;;;;;;1.05;100.00;96606.56;5078171;28;20187;-55
2022/03/21 02:02:51;;;;;;;19.93;12.20;;;;;;;1.02;100.00;96602.59;5078757;28;20213;-54
2022/03/21 02:05:17;;;;;;;20.43;11.83;;;;;;;1.01;100.00;96614.44;5078396;28;20357;-54
2022/03/21 02:07:43;;;;;;;20.13;12.20;;;;;;;0.99;100.00;96616.69;5078016;28;20182;-55
2022/03/21 02:10:09;;;;;;;18.10;12.00;;;;;;;0.91;100.00;96616.66;5077933;28;20187;-53
2022/03/21 02:12:35;;;;;;;20.67;11.87;;;;;;;0.87;100.00;96616.47;5077645;28;20285;-54
2022/03/21 02:15:00;;;;;;;19.63;11.80;;;;;;;0.88;100.00;96617.25;5078184;28;20195;-58
2022/03/21 02:17:29;;;;;;;17.80;11.50;;;;;;;0.81;100.00;96615.03;5077898;28;20266;-57
2022/03/21 02:19:57;;;;;;;21.07;13.67;;;;;;;0.77;100.00;96606.00;5078317;28;20605;-69
2022/03/21 02:23:07;;;;;;;20.20;12.20;;;;;;;0.75;100.00;96613.56;5077929;28;20184;-69
2022/03/21 02:25:35;;;;;;;18.17;11.83;;;;;;;0.70;100.00;96616.41;5066514;28;20200;-69
2022/03/21 02:28:03;;;;;;;17.47;11.20;;;;;;;0.70;100.00;96620.97;5077725;28;20231;-68
2022/03/21 02:30:31;;;;;;;18.13;11.13;;;;;;;0.69;100.00;96614.03;5077365;28;20631;-69
2022/03/21 02:32:57;;;;;;;19.00;11.77;;;;;;;0.61;100.00;96612.88;5077616;28;20650;-54
2022/03/21 02:35:24;;;;;;;19.00;11.93;;;;;;;0.55;100.00;96616.81;5077831;28;20210;-58
2022/03/21 02:37:50;;;;;;;18.07;12.60;;;;;;;0.50;100.00;96608.88;5077636;28;20589;-60
2022/03/21 02:40:19;;;;;;;18.20;12.50;;;;;;;0.42;100.00;96615.00;5077890;28;20181;-61
2022/03/21 02:42:44;;;;;;;18.83;11.73;;;;;;;0.35;100.00;96611.97;5077436;28;20193;-60
2022/03/21 02:45:09;;;;;;;18.73;11.83;;;;;;;0.35;100.00;96614.66;5077256;28;20281;-60
2022/03/21 02:47:35;;;;;;;18.67;11.80;;;;;;;0.35;100.00;96614.66;5077470;28;20191;-60
2022/03/21 02:50:02;;;;;;;24.47;12.57;;;;;;;0.36;100.00;96615.47;5077635;28;20186;-60
2022/03/21 02:52:31;;;;;;;18.40;11.60;;;;;;;0.36;100.00;96616.22;5077532;28;20198;-64
2022/03/21 02:54:57;;;;;;;18.03;12.00;;;;;;;0.34;100.00;96607.69;5077092;28;20190;-69
2022/03/21 02:57:22;;;;;;;20.47;12.67;;;;;;;0.27;100.00;96612.72;5077242;28;20663;-68
2022/03/21 02:59:48;;;;;;;21.00;12.17;;;;;;;0.22;100.00;96618.22;5076889;28;20213;-69
2022/03/21 03:02:13;;;;;;;18.87;11.63;;;;;;;0.19;100.00;96620.72;5077372;28;20229;-69
2022/03/21 03:04:38;;;;;;;20.07;12.30;;;;;;;0.17;100.00;96625.63;5095127;28;20264;-69
2022/03/21 03:07:04;;;;;;;20.90;11.20;;;;;;;0.12;100.00;96621.16;5077197;28;20211;-69
2022/03/21 03:09:29;;;;;;;18.27;11.63;;;;;;;0.13;100.00;96627.31;5077176;28;20537;-68
2022/03/21 03:11:54;;;;;;;18.90;12.13;;;;;;;0.09;100.00;96619.09;5077219;28;20217;-59
2022/03/21 03:14:20;;;;;;;18.07;11.57;;;;;;;0.00;100.00;96624.38;5077496;28;20181;-55
2022/03/21 03:16:45;;;;;;;17.23;11.07;;;;;;;-0.07;100.00;96623.25;5077261;28;20235;-55
2022/03/21 03:19:11;;;;;;;20.60;11.97;;;;;;;-0.08;100.00;96624.31;5077406;28;20254;-55
2022/03/21 03:21:43;;;;;;;18.47;12.40;;;;;;;-0.06;100.00;96624.81;5077339;28;20231;-56
2022/03/21 03:24:10;;;;;;;18.33;11.77;;;;;;;-0.07;100.00;96623.25;5077016;28;20231;-56
2022/03/21 03:26:36;;;;;;;17.00;11.17;;;;;;;-0.09;100.00;96625.44;5077052;28;20194;-55
2022/03/21 03:29:02;;;;;;;18.47;11.53;;;;;;;-0.09;100.00;96620.06;5076652;28;20187;-69
2022/03/21 03:31:28;;;;;;;16.80;11.13;;;;;;;-0.10;100.00;96618.47;5076672;28;20182;-70
2022/03/21 03:33:54;;;;;;;16.53;11.30;;;;;;;-0.13;100.00;96614.53;5077210;28;20179;-70
2022/03/21 03:36:20;;;;;;;16.73;10.67;;;;;;;-0.19;100.00;96626.47;5076615;28;20259;-70
2022/03/21 03:38:46;;;;;;;17.33;10.67;;;;;;;-0.27;100.00;96626.38;5076544;28;20278;-70
2022/03/21 03:41:12;;;;;;;19.87;10.77;;;;;;;-0.32;100.00;96621.16;5076519;28;20183;-70
2022/03/21 03:43:37;;;;;;;15.27;10.60;;;;;;;-0.31;100.00;96633.47;5076725;28;20284;-70
2022/03/21 03:46:04;;;;;;;18.67;11.40;;;;;;;-0.32;100.00;96631.88;5076704;28;20182;-70
2022/03/21 03:48:29;;;;;;;20.23;11.30;;;;;;;-0.30;100.00;96627.00;5076777;28;20181;-58
2022/03/21 03:50:55;;;;;;;20.27;12.60;;;;;;;-0.30;100.00;96633.16;5076744;28;20190;-57
2022/03/21 03:53:21;;;;;;;22.07;12.97;;;;;;;-0.32;100.00;96638.03;5076654;28;20213;-55
2022/03/21 03:55:46;;;;;;;19.97;12.33;;;;;;;-0.36;100.00;96633.59;5076319;28;20207;-56
2022/03/21 03:58:12;;;;;;;16.93;11.73;;;;;;;-0.41;100.00;96628.31;5076188;28;20365;-57
2022/03/21 04:00:38;;;;;;;22.00;12.30;;;;;;;-0.40;100.00;96621.88;5075919;28;20216;-57
2022/03/21 04:05:49;;;;;;;19.83;11.93;;;;;;;-0.49;100.00;96627.16;5094578;28;20205;-58
2022/03/21 04:08:15;;;;;;;20.33;11.83;;;;;;;-0.53;100.00;96630.75;5075745;28;20183;-70
2022/03/21 04:10:40;;;;;;;16.90;11.23;;;;;;;-0.54;100.00;96634.53;5076166;28;20188;-70
2022/03/21 04:13:05;;;;;;;17.33;10.90;;;;;;;-0.52;100.00;96632.31;5076347;28;20181;-69
2022/03/21 04:15:31;;;;;;;16.13;11.27;;;;;;;-0.57;100.00;96637.81;5076424;28;20206;-69
2022/03/21 04:18:00;;;;;;;18.03;10.80;;;;;;;-0.62;100.00;96632.56;5075892;28;20273;-70
2022/03/21 04:20:27;;;;;;;20.10;10.67;;;;;;;-0.61;100.00;96650.25;5076284;28;20189;-69
2022/03/21 04:22:52;;;;;;;20.30;11.93;;;;;;;-0.60;100.00;96635.72;5075923;28;20213;-70
2022/03/21 04:25:18;;;;;;;18.80;11.07;;;;;;;-0.65;100.00;96641.22;5075959;28;20221;-63
2022/03/21 04:27:43;;;;;;;18.50;10.57;;;;;;;-0.67;100.00;96648.75;5076550;28;20178;-54
2022/03/21 04:30:09;;;;;;;20.17;11.03;;;;;;;-0.70;100.00;96646.66;5075588;28;20236;-55
2022/03/21 04:32:34;;;;;;;18.63;10.70;;;;;;;-0.73;100.00;96642.69;5075843;28;20276;-55
2022/03/21 04:35:00;;;;;;;16.90;9.90;;;;;;;-0.75;100.00;96654.81;5076046;28;20253;-56
2022/03/21 04:37:25;;;;;;;17.37;10.43;;;;;;;-0.76;100.00;96653.25;5075618;28;20234;-56
2022/03/21 04:39:51;;;;;;;19.00;10.00;;;;;;;-0.77;100.00;96649.75;5076028;28;20190;-55
2022/03/21 04:42:17;;;;;;;18.87;11.10;;;;;;;-0.79;100.00;96648.47;5075602;28;20174;-56
2022/03/21 04:44:44;;;;;;;19.00;11.50;;;;;;;-0.81;100.00;96656.81;5075835;28;20238;-55
2022/03/21 04:47:10;;;;;;;22.27;12.90;;;;;;;-0.82;100.00;96662.47;5076096;28;20267;-58
2022/03/21 04:49:36;;;;;;;20.20;12.07;;;;;;;-0.81;100.00;96666.72;5075956;28;20178;-58
2022/03/21 04:52:02;;;;;;;17.13;10.77;;;;;;;-0.81;100.00;96662.19;5075583;28;20238;-59
2022/03/21 04:54:28;;;;;;;17.20;10.97;;;;;;;-0.84;100.00;96668.13;5075209;28;20203;-59
2022/03/21 04:56:54;;;;;;;20.50;12.13;;;;;;;-0.87;100.00;96665.28;5075885;28;20212;-58
2022/03/21 04:59:19;;;;;;;17.07;11.20;;;;;;;-0.84;100.00;96675.41;5075344;28;20226;-58
2022/03/21 05:01:47;;;;;;;17.47;11.03;;;;;;;-0.79;100.00;96672.59;5075223;28;20177;-60
2022/03/21 05:04:14;;;;;;;16.17;10.63;;;;;;;-0.79;100.00;96675.28;5075162;28;20176;-52
2022/03/21 05:06:39;;;;;;;19.00;11.20;;;;;;;-0.82;100.00;96675.88;5075857;28;20181;-51
2022/03/21 05:09:05;;;;;;;18.07;11.20;;;;;;;-0.81;100.00;96677.47;5075127;28;20197;-52
2022/03/21 05:11:31;;;;;;;18.20;11.43;;;;;;;-0.83;100.00;96671.63;5075403;28;20184;-48
2022/03/21 05:13:56;;;;;;;16.90;10.67;;;;;;;-0.87;100.00;96678.66;5075851;28;20182;-48
2022/03/21 05:16:22;;;;;;;15.80;10.73;;;;;;;-0.89;100.00;96680.84;5075003;28;20192;-55
2022/03/21 05:18:49;;;;;;;17.30;11.37;;;;;;;-0.85;100.00;96681.84;5075355;28;20217;-61
2022/03/21 05:21:15;;;;;;;22.57;11.43;;;;;;;-0.83;100.00;96690.38;5077036;28;20186;-52
2022/03/21 05:31:52;;;;;;;17.30;11.07;;;;;;;-0.28;100.00;96686.53;5096896;28;20195;-62
2022/03/21 05:37:01;;;;;;;20.40;11.27;;;;;;;0.24;100.00;96704.63;5096353;28;20220;-53
2022/03/21 05:39:27;;;;;;;21.33;12.13;;;;;;;0.50;100.00;96697.53;5078105;28;20198;-60
2022/03/21 05:41:52;;;;;;;19.00;11.00;;;;;;;0.80;100.00;96704.81;5078812;28;20199;-58
2022/03/21 05:44:18;;;;;;;19.07;11.17;;;;;;;1.09;100.00;96705.09;5078338;28;20530;-56
2022/03/21 05:46:44;;;;;;;20.07;12.27;;;;;;;1.29;100.00;96699.19;5078200;28;20195;-58
2022/03/21 05:49:09;;;;;;;21.53;12.63;;;;;;;1.56;100.00;96698.94;5078588;28;20193;-57
2022/03/21 05:51:37;;;;;;;19.47;12.17;;;;;;;1.77;100.00;96701.81;5078215;28;20187;-58
2022/03/21 05:54:11;;;;;;;19.37;11.30;;;;;;;1.94;100.00;96699.97;5078327;28;20220;-59
2022/03/21 05:56:38;;;;;;;17.90;12.13;;;;;;;2.10;100.00;96700.25;5078169;28;20204;-61
2022/03/21 06:01:48;;;;;;;16.73;11.80;;;;;;;2.68;100.00;96693.25;5096012;28;20261;-56
2022/03/21 06:04:15;;;;;;;18.27;11.80;;;;;;;2.97;100.00;96701.41;5077865;28;20185;-55
2022/03/21 06:06:41;;;;;;;21.87;11.70;;;;;;;3.18;100.00;96707.66;5095927;28;20259;-56
2022/03/21 06:09:06;;;;;;;19.53;12.33;;;;;;;3.38;100.00;96716.97;5078183;28;20243;-53
2022/03/21 06:11:31;;;;;;;21.93;12.87;;;;;;;3.68;100.00;96715.06;5078466;28;20180;-55
2022/03/21 06:13:57;;;;;;;21.23;12.10;;;;;;;4.25;100.00;96711.50;5078506;28;20326;-66
2022/03/21 06:16:22;;;;;;;23.60;13.90;;;;;;;4.78;100.00;96711.50;5077752;28;20216;-57
2022/03/21 06:18:48;;;;;;;20.10;13.07;;;;;;;5.36;100.00;96721.22;5078273;28;20197;-57
2022/03/21 06:21:13;;;;;;;21.83;13.73;;;;;;;5.43;100.00;96721.47;5078464;28;20181;-59
2022/03/21 06:23:39;;;;;;;26.90;14.00;;;;;;;5.44;100.00;96723.03;5077752;28;20186;-59
2022/03/21 06:26:11;;;;;;;24.57;13.47;;;;;;;5.67;99.91;96729.59;5078124;28;20193;-59
2022/03/21 06:28:36;;;;;;;23.63;12.80;;;;;;;6.09;98.49;96717.41;5077881;28;20266;-59
2022/03/21 06:31:02;;;;;;;22.23;13.07;;;;;;;6.26;94.33;96717.13;5077190;28;20278;-60
2022/03/21 06:33:29;;;;;;;21.73;13.10;;;;;;;6.46;92.07;96727.03;5077397;28;20410;-52
2022/03/21 06:36:00;;;;;;;20.23;13.37;;;;;;;6.70;89.06;96722.31;5077199;28;20279;-66
2022/03/21 06:38:25;;;;;;;26.47;13.33;;;;;;;7.30;85.96;96718.50;5077991;28;20256;-67
2022/03/21 06:40:51;;;;;;;46.23;14.20;;;;;;;7.93;80.96;96711.91;5077888;28;20176;-67
2022/03/21 06:43:17;;;;;;;39.67;13.73;;;;;;;8.48;77.76;96719.75;5077450;28;20233;-66
2022/03/21 06:45:43;;;;;;;24.07;13.10;;;;;;;8.87;74.84;96721.38;5077038;28;20274;-67
2022/03/21 06:48:09;;;;;;;20.27;12.63;;;;;;;9.69;69.97;96725.19;5077194;28;20264;-68
2022/03/21 06:50:34;;;;;;;24.80;13.07;;;;;;;9.79;67.04;96724.59;5077131;28;20191;-58
2022/03/21 06:53:00;;;;;;;18.13;12.53;;;;;;;9.72;66.77;96724.47;5077150;28;20181;-59
2022/03/21 06:55:26;;;;;;;23.23;12.93;;;;;;;10.22;63.45;96720.59;5077069;28;20565;-64
2022/03/21 06:57:51;;;;;;;22.33;12.77;;;;;;;10.59;61.65;96723.47;5076955;28;20189;-66
2022/03/21 07:00:17;;;;;;;27.63;13.90;;;;;;;10.73;60.17;96731.84;5077179;28;20279;-65
2022/03/21 07:02:43;;;;;;;21.30;13.40;;;;;;;10.86;59.00;96731.25;5077005;28;20236;-65
2022/03/21 07:05:10;;;;;;;21.23;12.77;;;;;;;11.06;57.92;96727.19;5076754;28;20184;-66
2022/03/21 07:07:35;;;;;;;20.07;13.53;;;;;;;11.18;57.91;96728.88;5077320;28;20610;-65
2022/03/21 07:10:02;;;;;;;18.10;12.70;;;;;;;11.18;57.36;96729.66;5077021;28;20191;-55
2022/03/21 07:12:27;;;;;;;18.77;13.50;;;;;;;11.45;56.21;96727.59;5076706;28;20191;-67
2022/03/21 07:14:52;;;;;;;16.87;13.00;;;;;;;11.87;54.14;96739.00;5076570;28;20185;-67
2022/03/21 07:17:21;;;;;;;20.07;13.33;;;;;;;11.78;53.94;96727.56;5076526;28;20215;-67
2022/03/21 07:19:47;;;;;;;19.37;13.57;;;;;;;12.34;52.12;96731.50;5076715;28;20238;-67
2022/03/21 07:22:13;;;;;;;16.90;13.37;;;;;;;12.75;49.67;96729.41;5076763;28;20188;-67
2022/03/21 07:24:39;;;;;;;17.27;12.37;;;;;;;13.03;49.10;96735.03;5076701;28;20220;-67
2022/03/21 07:27:05;;;;;;;18.50;13.00;;;;;;;13.36;47.31;96736.75;5076878;28;20191;-61
2022/03/21 07:29:30;;;;;;;17.90;13.93;;;;;;;13.42;47.55;96735.97;5076974;28;20283;-63
2022/03/21 07:31:57;;;;;;;17.83;14.17;;;;;;;13.45;46.70;96739.88;5076577;28;20263;-67
2022/03/21 07:34:22;;;;;;;20.50;14.60;;;;;;;13.34;46.23;96739.88;5076696;28;20192;-67
2022/03/21 07:36:49;;;;;;;21.60;13.67;;;;;;;13.10;47.56;96757.00;5076486;28;20291;-67
2022/03/21 07:39:14;;;;;;;19.83;13.87;;;;;;;13.10;47.38;96759.75;5076406;28;20237;-67
2022/03/21 07:41:39;;;;;;;21.97;13.53;;;;;;;13.80;45.89;96751.72;5077074;28;20196;-67
2022/03/21 07:44:05;;;;;;;19.13;14.60;;;;;;;14.62;42.82;96759.59;5075311;28;20192;-68
2022/03/21 07:49:15;;;;;;;21.80;14.30;;;;;;;15.55;41.38;96754.16;5094776;28;20199;-58
2022/03/21 07:51:43;;;;;;;16.57;13.23;;;;;;;16.06;39.41;96748.72;5076547;28;20180;-58
2022/03/21 07:54:09;;;;;;;16.53;13.90;;;;;;;17.17;37.45;96747.28;5076455;28;20192;-58
2022/03/21 07:56:34;;;;;;;21.03;14.00;;;;;;;17.84;34.68;96745.22;5076396;28;20221;-58
2022/03/21 07:59:01;;;;;;;21.63;14.13;;;;;;;17.54;35.56;96752.75;5076290;28;20180;-58
2022/03/21 08:01:29;;;;;;;19.50;14.50;;;;;;;17.15;35.22;96755.22;5076447;28;20184;-58
2022/03/21 08:03:54;;;;;;;24.03;17.27;;;;;;;17.04;35.91;96757.31;5076169;28;20562;-58
2022/03/21 08:06:20;;;;;;;16.43;13.87;;;;;;;17.61;35.22;96764.50;5076252;28;20188;-58
2022/03/21 08:08:47;;;;;;;20.07;14.20;;;;;;;17.49;34.42;96761.53;5076191;28;20184;-56
2022/03/21 08:11:13;;;;;;;19.30;14.27;;;;;;;18.36;33.98;96765.03;5075669;28;20189;-57
2022/03/21 08:13:38;;;;;;;18.77;14.17;;;;;;;19.23;32.27;96757.13;5075845;28;20188;-56
2022/03/21 08:16:04;;;;;;;20.63;14.80;;;;;;;19.61;31.40;96750.00;5075815;28;20215;-57
2022/03/21 08:18:30;;;;;;;19.30;13.93;;;;;;;19.84;31.41;96752.66;5075954;28;20192;-58
2022/03/21 08:20:55;;;;;;;18.90;14.77;;;;;;;19.84;30.78;96754.66;5075819;28;20176;-58
2022/03/21 08:23:21;;;;;;;16.75;13.73;;;;;;;20.61;29.26;96755.63;5075885;28;20201;-65
2022/03/21 08:25:46;;;;;;;16.90;13.75;;;;;;;20.04;28.53;96756.19;5076108;28;20290;-59
2022/03/21 08:28:15;;;;;;;19.15;14.82;;;;;;;19.66;29.78;96757.03;5075973;28;20259;-59
2022/03/21 08:30:42;;;;;;;16.40;14.25;;;;;;;19.48;29.07;96756.63;5075558;28;20184;-58
2022/03/21 08:33:08;;;;;;;18.30;14.80;;;;;;;19.19;30.09;96765.47;5075825;28;20194;-59
2022/03/21 08:35:36;;;;;;;15.17;13.67;;;;;;;19.71;29.86;96764.84;5075348;28;20286;-59
2022/03/21 08:38:02;;;;;;;14.70;13.20;;;;;;;19.36;29.27;96769.13;5075739;28;20196;-59
2022/03/21 08:40:27;;;;;;;15.20;13.67;;;;;;;19.64;29.21;96765.78;5075723;28;20191;-62
2022/03/21 08:42:53;;;;;;;15.77;14.07;;;;;;;19.64;29.78;96770.53;5076057;28;20193;-71
2022/03/21 08:45:21;;;;;;;16.10;13.80;;;;;;;19.20;30.32;96769.03;5075973;28;20192;-57
2022/03/21 08:47:47;;;;;;;16.10;14.23;;;;;;;19.73;29.38;96773.53;5075680;28;20191;-57
2022/03/21 08:50:12;;;;;;;19.20;14.00;;;;;;;19.90;28.51;96770.38;5075319;28;20184;-57
2022/03/21 08:52:38;;;;;;;18.17;14.53;;;;;;;20.18;28.20;96771.75;5075413;28;20253;-57
2022/03/21 08:55:04;;;;;;;16.60;14.23;;;;;;;20.86;27.83;96762.09;5077296;28;20216;-58
2022/03/21 08:57:30;;;;;;;16.80;14.80;;;;;;;20.98;27.82;96764.19;5079524;28;20215;-56
2022/03/21 08:59:56;;;;;;;17.60;14.70;;;;;;;21.05;27.38;96766.78;5079064;28;20196;-65
2022/03/21 09:02:21;;;;;;;17.30;15.20;;;;;;;20.78;27.84;96766.28;5079431;28;20211;-65
2022/03/21 09:04:46;;;;;;;18.23;16.33;;;;;;;21.31;27.37;96765.66;5079187;28;20192;-66
2022/03/21 09:07:13;;;;;;;17.20;15.27;;;;;;;20.40;28.39;96761.69;5078697;28;20790;-66
2022/03/21 09:09:39;;;;;;;20.08;16.15;;;;;;;19.28;28.89;96773.25;5095590;28;20794;-65
2022/03/21 09:12:04;;;;;;;17.58;15.13;;;;;;;19.19;29.42;96773.00;5078876;28;20192;-65
2022/03/21 09:14:30;;;;;;;19.03;16.50;;;;;;;19.63;30.16;96764.22;5078616;28;20534;-65
2022/03/21 09:16:56;;;;;;;22.17;16.48;;;;;;;19.97;29.29;96761.88;5078721;28;20192;-65
2022/03/21 09:19:23;;;;;;;21.58;16.25;;;;;;;18.50;31.13;96764.78;5078725;28;20647;-57
2022/03/21 09:21:50;;;;;;;22.05;16.75;;;;;;;19.66;30.04;96763.34;5078527;28;20203;-70
2022/03/21 09:24:15;;;;;;;23.92;16.58;;;;;;;19.52;30.40;96757.34;5079132;28;20188;-69
2022/03/21 09:26:40;;;;;;;18.70;16.02;;;;;;;19.45;29.80;96761.03;5078794;28;20204;-70
2022/03/21 09:29:06;;;;;;;22.52;15.93;;;;;;;19.85;28.89;96762.53;5078457;28;20259;-70
2022/03/21 09:31:32;;;;;;;18.33;15.93;;;;;;;20.62;28.44;96757.97;5078964;28;20185;-70
2022/03/21 09:33:58;;;;;;;25.92;16.13;;;;;;;21.29;28.17;96756.97;5078998;28;20192;-70
2022/03/21 09:36:24;;;;;;;18.00;15.13;;;;;;;22.05;27.34;96758.72;5078571;28;20188;-58
2022/03/21 09:38:49;;;;;;;17.33;15.40;;;;;;;21.99;26.60;96756.94;5079135;28;20705;-59
2022/03/21 09:41:22;;;;;;;18.65;16.08;;;;;;;21.39;27.43;96755.13;5078845;28;20600;-59
2022/03/21 09:43:52;;;;;;;20.63;15.50;;;;;;;20.74;28.01;96754.47;5078320;28;20572;-60
2022/03/21 09:46:18;;;;;;;18.00;14.88;;;;;;;20.66;28.53;96755.88;5078143;28;20196;-59
2022/03/21 09:48:48;;;;;;;17.80;15.57;;;;;;;20.31;28.90;96751.19;5078302;28;20226;-59
2022/03/21 09:51:13;;;;;;;20.40;16.13;;;;;;;20.34;28.60;96747.56;5078160;28;20192;-59
2022/03/21 09:53:39;;;;;;;19.88;16.85;;;;;;;19.58;28.93;96755.59;5078267;28;20649;-59
2022/03/21 09:56:06;;;;;;;18.20;16.17;;;;;;;20.34;29.05;96752.31;5078251;28;20180;-71
2022/03/21 09:58:31;;;;;;;17.05;15.35;;;;;;;20.46;28.00;96743.28;5078934;28;20177;-63
2022/03/21 10:00:56;;;;;;;19.80;17.70;;;;;;;20.02;28.51;96747.50;5078196;28;20188;-62
2022/03/21 10:03:22;;;;;;;19.55;15.75;;;;;;;20.38;28.94;96742.69;5077795;28;20204;-63
2022/03/21 10:05:49;;;;;;;22.38;15.77;;;;;;;19.76;28.29;96754.03;5095497;28;20254;-64
2022/03/21 10:08:24;;;;;;;18.17;16.25;;;;;;;20.09;28.49;96749.31;5077602;28;20180;-63
2022/03/21 10:10:51;;;;;;;18.75;15.90;;;;;;;19.85;28.69;96753.44;5077751;28;20188;-63
2022/03/21 10:13:18;;;;;;;22.48;16.10;;;;;;;20.33;28.24;96746.00;5077921;28;20182;-73
2022/03/21 10:15:44;;;;;;;16.93;14.73;;;;;;;19.69;29.01;96751.41;5078416;28;20638;-59
2022/03/21 10:18:11;;;;;;;21.63;15.32;;;;;;;20.34;28.70;96747.56;5077756;28;20275;-59
2022/03/21 10:20:37;;;;;;;18.55;15.13;;;;;;;20.25;27.97;96741.06;5078170;28;20191;-59
2022/03/21 10:23:16;;;;;;;15.48;13.73;;;;;;;20.14;28.05;96738.50;5077753;28;20176;-59
2022/03/21 10:25:42;;;;;;;16.60;14.50;;;;;;;20.89;27.46;96736.22;5077778;28;20693;-59
2022/03/21 10:28:07;;;;;;;17.45;14.65;;;;;;;20.84;27.29;96739.53;5078302;28;20184;-59
2022/03/21 10:30:44;;;;;;;18.00;15.20;;;;;;;20.42;27.23;96737.84;5077550;28;20216;-61
2022/03/21 10:33:10;;;;;;;17.50;14.10;;;;;;;19.88;27.62;96728.41;5078070;28;20175;-64
2022/03/21 10:35:44;;;;;;;20.38;14.48;;;;;;;19.84;28.11;96736.03;5077499;28;20229;-63
2022/03/21 10:38:10;;;;;;;19.47;13.97;;;;;;;18.62;29.43;96740.03;5077799;28;20187;-63
2022/03/21 10:40:43;;;;;;;16.87;14.00;;;;;;;18.74;29.20;96738.66;5077959;28;20176;-62
2022/03/21 10:43:10;;;;;;;16.40;14.10;;;;;;;20.23;28.57;96730.38;5077395;28;20180;-62
2022/03/21 10:45:38;;;;;;;16.40;13.63;;;;;;;20.60;27.86;96732.63;5077622;28;20228;-62
2022/03/21 10:48:05;;;;;;;15.47;13.87;;;;;;;20.36;27.88;96728.47;5077867;28;20238;-61
2022/03/21 10:50:40;;;;;;;16.83;14.77;;;;;;;21.06;26.95;96721.13;5077212;28;20185;-62
2022/03/21 10:53:10;;;;;;;20.67;14.80;;;;;;;20.95;26.77;96726.19;5077830;28;20187;-59
2022/03/21 10:55:36;;;;;;;19.30;14.77;;;;;;;20.92;27.08;96727.06;5077643;28;20215;-58
2022/03/21 10:58:02;;;;;;;19.90;14.40;;;;;;;20.77;26.81;96731.41;5077267;28;20257;-58
2022/03/21 11:00:28;;;;;;;16.77;14.80;;;;;;;20.72;26.38;96726.34;5077092;28;20212;-61
2022/03/21 11:03:05;;;;;;;22.57;14.60;;;;;;;21.81;25.67;96718.53;5076933;28;20223;-59
2022/03/21 11:05:34;;;;;;;16.67;14.90;;;;;;;21.54;25.88;96712.56;5077234;28;20204;-59
2022/03/21 11:07:59;;;;;;;18.13;14.70;;;;;;;20.93;26.49;96723.06;5077544;28;20189;-58
2022/03/21 11:10:26;;;;;;;16.67;14.87;;;;;;;20.53;26.33;96716.16;5077149;28;20219;-59
2022/03/21 11:12:54;;;;;;;15.87;14.37;;;;;;;20.89;26.21;96716.78;5077029;28;20208;-59
2022/03/21 11:15:19;;;;;;;16.67;14.30;;;;;;;20.15;26.96;96722.66;5076999;28;20187;-57
2022/03/21 11:17:45;;;;;;;16.97;15.27;;;;;;;20.13;27.36;96713.97;5076129;28;20180;-57
2022/03/21 11:20:12;;;;;;;19.33;14.80;;;;;;;19.77;27.85;96719.53;5076961;28;20194;-57
2022/03/21 11:22:39;;;;;;;18.10;14.70;;;;;;;19.70;28.01;96716.94;5077268;28;20179;-57
2022/03/21 11:25:12;;;;;;;15.82;14.23;;;;;;;19.79;28.06;96717.13;5076776;28;20212;-56
2022/03/21 11:27:58;;;;;;;17.03;15.23;;;;;;;17.74;29.24;96717.75;5076925;28;20180;-58
2022/03/21 11:30:41;;;;;;;17.20;14.00;;;;;;;17.75;30.06;96714.59;5076514;28;20241;-57
2022/03/21 11:33:21;;;;;;;17.20;14.27;;;;;;;16.68;31.20;96711.97;5077127;28;20172;-58
2022/03/21 11:35:58;;;;;;;17.70;14.40;;;;;;;15.75;32.39;96702.91;5076881;28;20200;-55
2022/03/21 11:38:27;;;;;;;15.53;13.87;;;;;;;15.45;32.93;96708.19;5076808;28;20186;-55